Iguape, Brazil
Current Conditions -  °F | °C
As of 11:00 PM on Saturday 25 Oct 2014 (Local Time) from SBSP Reporting Station
Overcast Overcast  
Wind Chill: 68°   Ceiling: 1000
Heat Index: 68°   Visibility: 6mi
Dew Point: 61°   Wind: 2mph
Humidity: 78%   Direction: 140°SE
Pressure: 30.06"   Gusts: NA
Location:  24.72°S, 47.57°W
Report Text: SBSP 260100Z 14002KT 9999 SCT007 OVC010 20/16 Q1018
Loading
Personal Weather Stations






























Interactive Weather Map
Tropical Storm Tracking
New forecast layout! Learn more

10-Day Weather Forecast

Advertisements
Track Severe Weather on mobile